createdAt,value
2018-12-21T00:00:33.234Z,1031.38
2018-12-21T00:01:33.860Z,1031.34
2018-12-21T00:02:34.435Z,1031.31
2018-12-21T00:03:35.008Z,1031.30
2018-12-21T00:04:35.582Z,1031.32
2018-12-21T00:05:36.253Z,1031.37
2018-12-21T00:06:36.827Z,1031.33
2018-12-21T00:07:37.447Z,1031.30
2018-12-21T00:08:38.020Z,1031.41
2018-12-21T00:09:38.596Z,1031.43
2018-12-21T00:10:39.170Z,1031.41
2018-12-21T00:11:39.746Z,1031.37
2018-12-21T00:12:40.319Z,1031.37
2018-12-21T00:13:40.894Z,1031.39
2018-12-21T00:14:41.468Z,1031.41
2018-12-21T00:15:42.041Z,1031.41
2018-12-21T00:16:42.617Z,1031.34
2018-12-21T00:17:43.190Z,1031.36
2018-12-21T00:18:43.814Z,1031.36
2018-12-21T00:19:44.389Z,1031.27
2018-12-21T00:20:44.965Z,1031.31
2018-12-21T00:21:45.538Z,1031.25
2018-12-21T00:22:46.114Z,1031.26
2018-12-21T00:23:46.688Z,1031.25
2018-12-21T00:24:47.313Z,1031.25
2018-12-21T00:25:47.997Z,1031.16
2018-12-21T00:26:48.520Z,1031.22
2018-12-21T00:27:49.095Z,1031.17
2018-12-21T00:28:49.669Z,1031.22
2018-12-21T00:29:50.242Z,1031.16
2018-12-21T00:30:50.917Z,1031.19
2018-12-21T00:31:51.593Z,1031.25
2018-12-21T00:32:52.163Z,1031.30
2018-12-21T00:33:52.745Z,1031.31
2018-12-21T00:34:53.512Z,1031.23
2018-12-21T00:35:54.085Z,1031.34
2018-12-21T00:36:54.658Z,1031.31
2018-12-21T00:37:55.232Z,1031.28
2018-12-21T00:38:55.805Z,1031.25
2018-12-21T00:39:56.382Z,1031.28
2018-12-21T00:40:56.955Z,1031.22
2018-12-21T00:41:57.526Z,1031.23
2018-12-21T00:42:58.100Z,1031.22
2018-12-21T00:43:58.672Z,1031.24
2018-12-21T00:44:59.247Z,1031.23
2018-12-21T00:45:59.869Z,1031.26
2018-12-21T00:47:00.444Z,1031.26
2018-12-21T00:48:01.070Z,1031.12
2018-12-21T00:49:01.645Z,1031.34
2018-12-21T00:50:02.270Z,1031.20
2018-12-21T00:51:02.889Z,1031.22
2018-12-21T00:52:03.466Z,1031.13
2018-12-21T00:53:04.039Z,1031.27
2018-12-21T00:54:04.616Z,1031.23
2018-12-21T00:55:05.257Z,1031.21
2018-12-21T00:56:05.829Z,1031.22
2018-12-21T00:57:06.405Z,1031.19
2018-12-21T00:58:06.987Z,1031.25
2018-12-21T00:59:07.554Z,1031.21
2018-12-21T01:00:08.129Z,1031.12
2018-12-21T01:01:08.706Z,1031.23
2018-12-21T01:02:09.278Z,1031.16
2018-12-21T01:03:09.905Z,1031.21
2018-12-21T01:04:10.528Z,1031.22
2018-12-21T01:05:11.154Z,1031.14
2018-12-21T01:06:11.726Z,1031.16
2018-12-21T01:07:12.299Z,1031.23
2018-12-21T01:08:12.873Z,1031.25
2018-12-21T01:09:13.446Z,1031.16
2018-12-21T01:10:14.061Z,1031.21
2018-12-21T01:11:14.633Z,1031.27
2018-12-21T01:12:15.356Z,1031.17
2018-12-21T01:13:15.930Z,1031.20
2018-12-21T01:14:16.507Z,1031.20
2018-12-21T01:15:17.082Z,1031.19
2018-12-21T01:16:17.655Z,1031.15
2018-12-21T01:17:18.230Z,1031.21
2018-12-21T01:18:18.799Z,1031.25
2018-12-21T01:19:19.370Z,1031.23
2018-12-21T01:20:19.942Z,1031.25
2018-12-21T01:21:20.517Z,1031.27
2018-12-21T01:22:21.140Z,1031.25
2018-12-21T01:23:21.714Z,1031.29
2018-12-21T01:24:22.291Z,1031.29
2018-12-21T01:25:22.913Z,1031.35
2018-12-21T01:26:23.488Z,1031.24
2018-12-21T01:27:24.112Z,1031.31
2018-12-21T01:28:24.686Z,1031.28
2018-12-21T01:29:25.262Z,1031.28
2018-12-21T01:30:25.836Z,1031.31
2018-12-21T01:31:26.411Z,1031.19
2018-12-21T01:32:26.985Z,1031.29
2018-12-21T01:33:27.561Z,1031.30
2018-12-21T01:34:28.139Z,1031.26
2018-12-21T01:35:28.759Z,1031.32
2018-12-21T01:36:29.336Z,1031.37
2018-12-21T01:37:29.910Z,1031.32
2018-12-21T01:38:30.486Z,1031.33
2018-12-21T01:39:31.059Z,1031.38
2018-12-21T01:40:31.683Z,1031.37
2018-12-21T01:41:32.308Z,1031.42
2018-12-21T01:42:32.878Z,1031.38
2018-12-21T01:43:33.453Z,1031.33
2018-12-21T01:44:34.026Z,1031.41
2018-12-21T01:45:34.603Z,1031.38
2018-12-21T01:46:35.176Z,1031.43
2018-12-21T01:47:35.751Z,1031.33
2018-12-21T01:48:36.323Z,1031.31
2018-12-21T01:49:36.899Z,1031.38
2018-12-21T01:50:37.474Z,1031.30
2018-12-21T01:51:38.097Z,1031.27
2018-12-21T01:52:38.671Z,1031.28
2018-12-21T01:53:39.246Z,1031.35
2018-12-21T01:54:39.821Z,1031.35
2018-12-21T01:55:40.395Z,1031.25
2018-12-21T01:56:41.021Z,1031.26
2018-12-21T01:57:41.646Z,1031.22
2018-12-21T01:58:42.270Z,1031.25
2018-12-21T01:59:42.848Z,1031.21
2018-12-21T02:00:43.458Z,1031.28
2018-12-21T02:01:44.035Z,1031.33
2018-12-21T02:02:44.609Z,1031.32
2018-12-21T02:03:45.184Z,1031.28
2018-12-21T02:04:45.755Z,1031.30
2018-12-21T02:05:46.329Z,1031.32
2018-12-21T02:06:46.901Z,1031.36
2018-12-21T02:07:47.524Z,1031.32
2018-12-21T02:08:48.100Z,1031.27
2018-12-21T02:09:48.673Z,1031.25
2018-12-21T02:10:49.340Z,1031.25
2018-12-21T02:11:49.860Z,1031.25
2018-12-21T02:12:50.435Z,1031.27
2018-12-21T02:13:51.010Z,1031.25
2018-12-21T02:14:51.586Z,1031.24
2018-12-21T02:15:52.159Z,1031.26
2018-12-21T02:16:52.784Z,1031.35
2018-12-21T02:17:53.356Z,1031.27
2018-12-21T02:18:53.936Z,1031.28
2018-12-21T02:19:54.503Z,1031.29
2018-12-21T02:20:55.127Z,1031.31
2018-12-21T02:21:56.226Z,1031.29
2018-12-21T02:22:56.792Z,1031.22
2018-12-21T02:23:57.367Z,1031.25
2018-12-21T02:24:57.987Z,1031.24
2018-12-21T02:25:58.560Z,1031.26
2018-12-21T02:26:59.134Z,1031.27
2018-12-21T02:27:59.708Z,1031.32
2018-12-21T02:29:00.284Z,1031.31
2018-12-21T02:30:00.857Z,1031.32
2018-12-21T02:31:01.432Z,1031.30
2018-12-21T02:32:02.008Z,1031.37
2018-12-21T02:33:02.581Z,1031.37
2018-12-21T02:34:03.156Z,1031.39
2018-12-21T02:35:03.841Z,1031.37
2018-12-21T02:36:04.455Z,1031.36
2018-12-21T02:37:05.029Z,1031.39
2018-12-21T02:38:05.603Z,1031.41
2018-12-21T02:39:06.226Z,1031.41
2018-12-21T02:40:06.811Z,1031.52
2018-12-21T02:41:07.376Z,1031.47
2018-12-21T02:42:07.954Z,1031.44
2018-12-21T02:43:08.580Z,1031.48
2018-12-21T02:44:09.155Z,1031.45
2018-12-21T02:45:09.728Z,1031.45
2018-12-21T02:46:10.299Z,1031.47
2018-12-21T02:47:10.872Z,1031.37
2018-12-21T02:48:11.446Z,1031.48
2018-12-21T02:49:12.061Z,1031.51
2018-12-21T02:50:12.635Z,1031.47
2018-12-21T02:51:13.210Z,1031.45
2018-12-21T02:52:13.779Z,1031.37
2018-12-21T02:53:14.352Z,1031.44
2018-12-21T02:54:14.976Z,1031.44
2018-12-21T02:55:15.549Z,1031.45
2018-12-21T02:56:16.125Z,1031.37
2018-12-21T02:57:16.698Z,1031.39
2018-12-21T02:58:17.326Z,1031.39
2018-12-21T02:59:17.898Z,1031.35
2018-12-21T03:00:18.512Z,1031.39
2018-12-21T03:01:19.088Z,1031.34
2018-12-21T03:02:19.697Z,1031.32
2018-12-21T03:03:20.232Z,1031.44
2018-12-21T03:04:20.858Z,1031.43
2018-12-21T03:05:21.436Z,1031.40
2018-12-21T03:06:22.002Z,1031.38
2018-12-21T03:07:22.577Z,1031.43
2018-12-21T03:08:23.151Z,1031.46
2018-12-21T03:09:23.726Z,1031.45
2018-12-21T03:10:24.347Z,1031.39
2018-12-21T03:11:24.924Z,1031.38
2018-12-21T03:12:25.542Z,1031.40
2018-12-21T03:13:26.113Z,1031.42
2018-12-21T03:14:26.690Z,1031.40
2018-12-21T03:15:27.264Z,1031.38
2018-12-21T03:16:27.839Z,1031.40
2018-12-21T03:17:28.412Z,1031.45
2018-12-21T03:18:28.987Z,1031.38
2018-12-21T03:19:29.613Z,1031.43
2018-12-21T03:20:30.182Z,1031.36
2018-12-21T03:21:30.756Z,1031.40
2018-12-21T03:22:31.379Z,1031.44
2018-12-21T03:23:31.956Z,1031.33
2018-12-21T03:24:32.530Z,1031.40
2018-12-21T03:25:33.104Z,1031.39
2018-12-21T03:26:33.679Z,1031.37
2018-12-21T03:27:34.303Z,1031.44
2018-12-21T03:28:34.937Z,1031.37
2018-12-21T03:29:35.501Z,1031.44
2018-12-21T03:30:36.082Z,1031.39
2018-12-21T03:31:36.699Z,1031.42
2018-12-21T03:32:37.272Z,1031.48
2018-12-21T03:33:37.894Z,1031.37
2018-12-21T03:34:38.472Z,1031.40
2018-12-21T03:35:39.044Z,1031.37
2018-12-21T03:36:39.678Z,1031.38
2018-12-21T03:37:40.242Z,1031.31
2018-12-21T03:38:40.858Z,1031.41
2018-12-21T03:39:41.432Z,1031.39
2018-12-21T03:40:42.028Z,1031.36
2018-12-21T03:41:42.579Z,1031.36
2018-12-21T03:42:43.202Z,1031.36
2018-12-21T03:47:50.058Z,1031.23
2018-12-21T03:48:50.625Z,1031.31
2018-12-21T03:49:51.191Z,1031.31
2018-12-21T03:50:51.758Z,1031.27
2018-12-21T03:51:52.321Z,1031.36
2018-12-21T03:52:52.890Z,1031.32
2018-12-21T03:53:53.456Z,1031.26
2018-12-21T03:54:54.022Z,1031.27
2018-12-21T03:55:54.589Z,1031.26
2018-12-21T03:56:55.158Z,1031.24
2018-12-21T03:57:55.779Z,1031.29
2018-12-21T03:58:56.345Z,1031.33
2018-12-21T03:59:56.912Z,1031.33
2018-12-21T04:00:57.488Z,1031.24
2018-12-21T04:01:58.048Z,1031.19
2018-12-21T04:02:58.615Z,1031.26
2018-12-21T04:03:59.181Z,1031.27
2018-12-21T04:04:59.751Z,1031.32
2018-12-21T04:06:00.368Z,1031.27
2018-12-21T04:07:00.935Z,1031.28
2018-12-21T04:08:01.504Z,1031.26
2018-12-21T04:09:02.273Z,1031.19
2018-12-21T04:10:02.841Z,1031.15
2018-12-21T04:11:03.460Z,1031.25
2018-12-21T04:12:04.068Z,1031.25
2018-12-21T04:13:04.637Z,1031.22
2018-12-21T04:14:05.205Z,1031.21
2018-12-21T04:15:05.775Z,1031.33
2018-12-21T04:16:06.436Z,1031.27
2018-12-21T04:17:07.004Z,1031.25
2018-12-21T04:18:07.572Z,1031.19
2018-12-21T04:19:08.142Z,1031.25
2018-12-21T04:20:08.711Z,1031.19
2018-12-21T04:21:09.286Z,1031.23
2018-12-21T04:22:09.851Z,1031.32
2018-12-21T04:23:10.467Z,1031.17
2018-12-21T04:24:11.044Z,1031.16
2018-12-21T04:25:11.609Z,1031.27
2018-12-21T04:26:12.174Z,1031.21
2018-12-21T04:27:12.792Z,1031.17
2018-12-21T04:28:13.360Z,1031.20
2018-12-21T04:29:13.930Z,1031.18
2018-12-21T04:30:14.498Z,1031.13
2018-12-21T04:31:15.068Z,1031.22
2018-12-21T04:32:15.638Z,1031.21
2018-12-21T04:33:16.206Z,1031.24
2018-12-21T04:34:16.774Z,1031.26
2018-12-21T04:35:17.343Z,1031.21
2018-12-21T04:36:17.910Z,1031.09
2018-12-21T04:37:18.481Z,1031.25
2018-12-21T04:38:19.199Z,1031.07
2018-12-21T04:39:19.768Z,1031.18
2018-12-21T04:40:20.335Z,1031.15
2018-12-21T04:41:20.904Z,1031.16
2018-12-21T04:42:21.521Z,1031.02
2018-12-21T04:43:22.090Z,1031.02
2018-12-21T04:44:22.660Z,1031.02
2018-12-21T04:45:23.280Z,1030.98
2018-12-21T04:46:23.851Z,1031.09
2018-12-21T04:47:24.418Z,1031.09
2018-12-21T04:48:24.984Z,1031.08
2018-12-21T04:49:25.554Z,1031.05
2018-12-21T04:50:26.121Z,1031.05
2018-12-21T04:51:26.689Z,1031.03
2018-12-21T04:52:27.257Z,1030.99
2018-12-21T04:53:27.924Z,1030.95
2018-12-21T04:54:28.579Z,1031.05
2018-12-21T04:55:29.149Z,1031.06
2018-12-21T04:56:29.718Z,1031.13
2018-12-21T04:57:30.289Z,1031.15
2018-12-21T04:58:30.855Z,1031.05
2018-12-21T04:59:31.424Z,1031.04
2018-12-21T05:00:31.992Z,1031.01
2018-12-21T05:01:32.562Z,1031.17
2018-12-21T05:02:33.180Z,1031.11
2018-12-21T05:03:33.756Z,1031.06
2018-12-21T05:04:34.319Z,1031.09
2018-12-21T05:05:34.939Z,1031.09
2018-12-21T05:06:35.507Z,1031.11
2018-12-21T05:07:36.077Z,1031.02
2018-12-21T05:08:36.645Z,1030.99
2018-12-21T05:09:37.213Z,1030.98
2018-12-21T05:10:37.830Z,1031.02
2018-12-21T05:11:38.400Z,1031.05
2018-12-21T05:12:38.968Z,1031.06
2018-12-21T05:13:39.535Z,1031.00
2018-12-21T05:14:40.192Z,1031.09
2018-12-21T05:15:40.725Z,1031.07
2018-12-21T05:16:41.290Z,1031.01
2018-12-21T05:17:41.861Z,1030.98
2018-12-21T05:18:42.432Z,1031.01
2018-12-21T05:19:43.002Z,1031.07
2018-12-21T05:20:43.613Z,1031.06
2018-12-21T05:21:44.232Z,1031.07
2018-12-21T05:22:52.179Z,1031.07
2018-12-21T05:23:46.365Z,1031.05
2018-12-21T05:24:47.085Z,1030.99
2018-12-21T05:25:47.652Z,1031.10
2018-12-21T05:26:48.222Z,1031.03
2018-12-21T05:27:48.791Z,1031.02
2018-12-21T05:28:49.360Z,1030.99
2018-12-21T05:29:49.938Z,1031.03
2018-12-21T05:30:50.500Z,1031.02
2018-12-21T05:31:51.073Z,1031.05
2018-12-21T05:32:51.681Z,1031.04
2018-12-21T05:33:52.300Z,1031.05
2018-12-21T05:34:52.870Z,1030.98
2018-12-21T05:35:53.441Z,1031.02
2018-12-21T05:36:54.008Z,1031.05
2018-12-21T05:37:54.578Z,1031.07
2018-12-21T05:38:55.147Z,1030.99
2018-12-21T05:39:55.828Z,1031.10
2018-12-21T05:40:56.342Z,1031.12
2018-12-21T05:41:56.910Z,1031.10
2018-12-21T05:42:57.479Z,1031.15
2018-12-21T05:43:58.049Z,1031.16
2018-12-21T05:44:58.617Z,1031.13
2018-12-21T05:45:59.187Z,1031.16
2018-12-21T05:46:59.957Z,1031.22
2018-12-21T05:48:00.526Z,1031.19
2018-12-21T05:49:01.145Z,1031.17
2018-12-21T05:50:01.713Z,1031.21
2018-12-21T05:51:02.279Z,1031.16
2018-12-21T05:52:02.848Z,1031.21
2018-12-21T05:53:03.417Z,1031.17
2018-12-21T05:54:03.984Z,1031.28
2018-12-21T05:55:04.604Z,1031.27
2018-12-21T05:56:05.171Z,1031.33
2018-12-21T05:57:05.739Z,1031.27
2018-12-21T05:58:06.310Z,1031.24
2018-12-21T05:59:06.883Z,1031.25
2018-12-21T06:00:07.445Z,1031.28
2018-12-21T06:01:08.014Z,1031.25
2018-12-21T06:02:08.583Z,1031.23
2018-12-21T06:03:09.240Z,1031.24
2018-12-21T06:04:09.772Z,1031.35
2018-12-21T06:05:10.342Z,1031.30
2018-12-21T06:06:10.910Z,1031.33
2018-12-21T06:07:11.480Z,1031.28
2018-12-21T06:08:12.049Z,1031.39
2018-12-21T06:09:12.616Z,1031.43
2018-12-21T06:10:13.187Z,1031.37
2018-12-21T06:11:13.756Z,1031.41
2018-12-21T06:12:14.322Z,1031.48
2018-12-21T06:13:14.892Z,1031.42
2018-12-21T06:14:15.511Z,1031.46
2018-12-21T06:15:16.130Z,1031.44
2018-12-21T06:16:16.702Z,1031.49
2018-12-21T06:17:17.268Z,1031.54
2018-12-21T06:18:17.887Z,1031.41
2018-12-21T06:19:18.456Z,1031.54
2018-12-21T06:20:19.025Z,1031.47
2018-12-21T06:21:19.594Z,1031.49
2018-12-21T06:22:20.160Z,1031.53
2018-12-21T06:23:20.729Z,1031.49
2018-12-21T06:24:21.299Z,1031.50
2018-12-21T06:25:21.867Z,1031.52
2018-12-21T06:26:22.435Z,1031.57
2018-12-21T06:27:23.001Z,1031.58
2018-12-21T06:28:23.571Z,1031.59
2018-12-21T06:29:24.198Z,1031.56
2018-12-21T06:30:24.857Z,1031.55
2018-12-21T06:31:25.627Z,1031.53
2018-12-21T06:32:26.299Z,1031.61
2018-12-21T06:33:26.866Z,1031.63
2018-12-21T06:34:27.438Z,1031.63
2018-12-21T06:35:28.005Z,1031.67
2018-12-21T06:36:28.575Z,1031.69
2018-12-21T06:37:29.145Z,1031.61
2018-12-21T06:38:29.713Z,1031.67
2018-12-21T06:39:30.280Z,1031.70
2018-12-21T06:40:30.851Z,1031.63
2018-12-21T06:41:31.418Z,1031.74
2018-12-21T06:42:31.985Z,1031.67
2018-12-21T06:43:32.605Z,1031.72
2018-12-21T06:44:33.173Z,1031.78
2018-12-21T06:45:33.741Z,1031.71
2018-12-21T06:46:34.310Z,1031.79
2018-12-21T06:47:34.922Z,1031.78
2018-12-21T06:48:35.581Z,1031.80
2018-12-21T06:49:36.150Z,1031.81
2018-12-21T06:50:36.760Z,1031.83
2018-12-21T06:51:37.331Z,1031.89
2018-12-21T06:52:37.898Z,1031.89
2018-12-21T06:53:38.465Z,1031.92
2018-12-21T06:54:39.084Z,1031.86
2018-12-21T06:55:39.653Z,1031.96
2018-12-21T06:56:40.269Z,1031.86
2018-12-21T06:57:40.839Z,1031.82
2018-12-21T06:58:41.409Z,1031.91
2018-12-21T06:59:41.974Z,1031.89
2018-12-21T07:00:42.544Z,1031.88
2018-12-21T07:01:43.114Z,1031.83
2018-12-21T07:02:43.681Z,1031.89
2018-12-21T07:03:44.303Z,1031.87
2018-12-21T07:04:44.869Z,1031.79
2018-12-21T07:05:45.441Z,1031.81
2018-12-21T07:06:46.008Z,1031.90
2018-12-21T07:07:46.623Z,1031.88
2018-12-21T07:08:47.139Z,1031.86
2018-12-21T07:09:47.709Z,1031.84
2018-12-21T07:10:48.319Z,1031.87
2018-12-21T07:11:48.888Z,1031.97
2018-12-21T07:12:49.459Z,1031.91
2018-12-21T07:13:50.078Z,1032.00
2018-12-21T07:14:50.698Z,1031.92
2018-12-21T07:15:51.270Z,1031.95
2018-12-21T07:16:51.835Z,1031.97
2018-12-21T07:17:57.458Z,1031.91
2018-12-21T07:18:58.028Z,1031.92
2018-12-21T07:19:58.596Z,1032.00
2018-12-21T07:20:59.164Z,1032.00
2018-12-21T07:21:59.734Z,1031.94
2018-12-21T07:23:00.303Z,1032.00
2018-12-21T07:24:00.921Z,1032.04
2018-12-21T07:25:01.535Z,1032.01
2018-12-21T07:26:02.103Z,1032.02
2018-12-21T07:27:02.673Z,1032.00
2018-12-21T07:28:03.243Z,1032.05
2018-12-21T07:29:03.809Z,1032.12
2018-12-21T07:30:04.378Z,1031.98
2018-12-21T07:31:04.998Z,1031.99
2018-12-21T07:32:05.570Z,1032.01
2018-12-21T07:33:06.134Z,1031.98
2018-12-21T07:34:06.702Z,1031.96
2018-12-21T07:35:07.321Z,1032.01
2018-12-21T07:37:09.450Z,1032.04
2018-12-21T07:38:10.023Z,1032.06
2018-12-21T07:39:10.589Z,1032.07
2018-12-21T07:40:11.220Z,1032.08
2018-12-21T07:41:11.838Z,1032.07
2018-12-21T07:42:12.411Z,1032.11
2018-12-21T07:43:13.019Z,1032.14
2018-12-21T07:44:13.586Z,1032.05
2018-12-21T07:45:14.156Z,1032.19
2018-12-21T07:46:14.725Z,1032.19
2018-12-21T07:47:15.293Z,1032.15
2018-12-21T07:48:15.863Z,1032.12
2018-12-21T07:49:16.432Z,1032.20
2018-12-21T07:50:17.054Z,1032.16
2018-12-21T07:51:17.669Z,1032.12
2018-12-21T07:52:18.286Z,1032.17
2018-12-21T07:53:18.808Z,1032.18
2018-12-21T07:54:19.377Z,1032.16
2018-12-21T07:55:19.946Z,1032.24
2018-12-21T07:56:20.516Z,1032.21
2018-12-21T07:57:21.084Z,1032.19
2018-12-21T07:58:21.702Z,1032.12
2018-12-21T07:59:22.271Z,1032.16
2018-12-21T08:00:22.840Z,1032.13
2018-12-21T08:01:23.409Z,1032.16
2018-12-21T08:02:23.976Z,1032.11
2018-12-21T08:03:24.546Z,1032.18
2018-12-21T08:04:25.166Z,1032.20
2018-12-21T08:05:25.733Z,1032.20
2018-12-21T08:06:26.301Z,1032.22
2018-12-21T08:07:26.871Z,1032.26
2018-12-21T08:08:27.488Z,1032.26
2018-12-21T08:09:28.055Z,1032.16
2018-12-21T08:10:28.626Z,1032.24
2018-12-21T08:11:29.244Z,1032.20
2018-12-21T08:12:29.814Z,1032.14
2018-12-21T08:13:30.382Z,1032.18
2018-12-21T08:14:30.950Z,1032.23
2018-12-21T08:15:31.570Z,1032.16
2018-12-21T08:16:32.141Z,1032.18
2018-12-21T08:17:32.753Z,1032.24
2018-12-21T08:18:33.318Z,1032.22
2018-12-21T08:19:33.890Z,1032.27
2018-12-21T08:20:34.505Z,1032.24
2018-12-21T08:21:35.075Z,1032.27
2018-12-21T08:22:35.640Z,1032.24
2018-12-21T08:23:44.129Z,1032.33
2018-12-21T08:24:37.773Z,1032.33
2018-12-21T08:25:38.393Z,1032.35
2018-12-21T08:26:38.963Z,1032.30
2018-12-21T08:27:39.577Z,1032.38
2018-12-21T08:28:40.099Z,1032.37
2018-12-21T08:29:40.668Z,1032.35
2018-12-21T08:30:41.236Z,1032.40
2018-12-21T08:31:41.807Z,1032.43
2018-12-21T08:32:42.375Z,1032.31
2018-12-21T08:33:42.993Z,1032.35
2018-12-21T08:34:43.560Z,1032.32
2018-12-21T08:35:44.130Z,1032.42
2018-12-21T08:36:44.698Z,1032.44
2018-12-21T08:37:45.266Z,1032.38
2018-12-21T08:38:45.834Z,1032.38
2018-12-21T08:39:46.402Z,1032.47
2018-12-21T08:40:46.972Z,1032.50
2018-12-21T08:41:47.592Z,1032.53
2018-12-21T08:42:48.160Z,1032.53
2018-12-21T08:43:48.729Z,1032.53
2018-12-21T08:44:49.346Z,1032.52
2018-12-21T08:45:49.915Z,1032.52
2018-12-21T08:46:50.486Z,1032.59
2018-12-21T08:47:51.053Z,1032.60
2018-12-21T08:48:52.852Z,1032.61
2018-12-21T08:49:53.234Z,1032.63
2018-12-21T08:50:53.807Z,1032.71
2018-12-21T08:51:54.370Z,1032.68
2018-12-21T08:52:54.982Z,1032.70
2018-12-21T08:53:55.549Z,1032.53
2018-12-21T08:54:56.117Z,1032.53
2018-12-21T08:55:56.686Z,1032.65
2018-12-21T08:56:57.255Z,1032.55
2018-12-21T08:57:57.873Z,1032.58
2018-12-21T08:58:58.444Z,1032.58
2018-12-21T08:59:59.011Z,1032.64
2018-12-21T09:00:59.579Z,1032.65
2018-12-21T09:02:00.150Z,1032.67
2018-12-21T09:03:00.719Z,1032.71
2018-12-21T09:04:01.336Z,1032.71
2018-12-21T09:05:02.106Z,1032.66
2018-12-21T09:06:02.677Z,1032.71
2018-12-21T09:07:03.244Z,1032.77
2018-12-21T09:08:03.817Z,1032.73
2018-12-21T09:09:04.383Z,1032.78
2018-12-21T09:10:04.953Z,1032.81
2018-12-21T09:11:05.565Z,1032.85
2018-12-21T09:12:06.133Z,1032.76
2018-12-21T09:13:06.701Z,1032.88
2018-12-21T09:14:07.342Z,1032.87
2018-12-21T09:15:07.918Z,1032.83
2018-12-21T09:16:08.499Z,1032.83
2018-12-21T09:17:09.055Z,1032.81
2018-12-21T09:18:09.625Z,1032.83
2018-12-21T09:19:10.244Z,1032.91
2018-12-21T09:20:10.815Z,1032.87
2018-12-21T09:21:11.381Z,1032.88
2018-12-21T09:22:12.070Z,1032.90
2018-12-21T09:23:12.583Z,1032.88
2018-12-21T09:24:13.151Z,1032.99
2018-12-21T09:25:13.722Z,1032.98
2018-12-21T09:26:14.290Z,1033.01
2018-12-21T09:27:14.858Z,1032.99
2018-12-21T09:28:15.430Z,1033.08
2018-12-21T09:29:15.999Z,1033.02
2018-12-21T09:30:16.620Z,1033.01
2018-12-21T09:31:17.228Z,1033.03
2018-12-21T09:32:17.846Z,1033.06
2018-12-21T09:33:18.416Z,1032.99
2018-12-21T09:34:18.988Z,1033.05
2018-12-21T09:35:19.603Z,1033.03
2018-12-21T09:36:20.173Z,1032.99
2018-12-21T09:37:20.739Z,1033.10
2018-12-21T09:38:21.311Z,1033.08
2018-12-21T09:39:21.878Z,1033.10
2018-12-21T09:40:22.446Z,1033.10
2018-12-21T09:41:23.017Z,1033.12
2018-12-21T09:42:23.587Z,1033.11
2018-12-21T09:43:24.151Z,1033.12
2018-12-21T09:44:24.718Z,1033.10
2018-12-21T09:45:25.287Z,1033.06
2018-12-21T09:46:26.056Z,1033.18
2018-12-21T09:47:26.626Z,1033.15
2018-12-21T09:48:27.191Z,1033.17
2018-12-21T09:49:27.761Z,1033.17
2018-12-21T09:50:28.330Z,1033.24
2018-12-21T09:51:29.097Z,1033.26
2018-12-21T09:52:29.665Z,1033.24
2018-12-21T09:53:30.239Z,1033.29
2018-12-21T09:54:30.856Z,1033.30
2018-12-21T09:55:31.427Z,1033.25
2018-12-21T09:56:31.995Z,1033.24
2018-12-21T09:57:32.566Z,1033.36
2018-12-21T09:58:33.137Z,1033.29
2018-12-21T09:59:33.705Z,1033.27
2018-12-21T10:00:34.273Z,1033.32
2018-12-21T10:01:34.843Z,1033.41
2018-12-21T10:02:35.843Z,1033.41
2018-12-21T10:03:36.638Z,1033.42
2018-12-21T10:04:37.211Z,1033.36
2018-12-21T10:05:37.824Z,1033.42
2018-12-21T10:06:38.442Z,1033.36
2018-12-21T10:07:39.011Z,1033.38
2018-12-21T10:08:39.580Z,1033.46
2018-12-21T10:09:40.148Z,1033.46
2018-12-21T10:10:40.718Z,1033.47
2018-12-21T10:11:41.336Z,1033.50
2018-12-21T10:12:41.907Z,1033.55
2018-12-21T10:13:42.477Z,1033.57
2018-12-21T10:14:43.043Z,1033.55
2018-12-21T10:15:43.612Z,1033.51
2018-12-21T10:16:44.181Z,1033.54
2018-12-21T10:17:44.748Z,1033.59
2018-12-21T10:18:45.327Z,1033.60
2018-12-21T10:19:45.935Z,1033.63
2018-12-21T10:20:46.589Z,1033.59
2018-12-21T10:21:47.156Z,1033.66
2018-12-21T10:22:47.726Z,1033.67
2018-12-21T10:23:48.347Z,1033.67
2018-12-21T10:24:48.959Z,1033.64
2018-12-21T10:25:49.526Z,1033.69
2018-12-21T10:26:50.145Z,1033.69
2018-12-21T10:27:50.713Z,1033.64
2018-12-21T10:28:51.283Z,1033.69
2018-12-21T10:29:51.849Z,1033.69
2018-12-21T10:30:52.422Z,1033.75
2018-12-21T10:31:52.990Z,1033.77
2018-12-21T10:32:53.559Z,1033.70
2018-12-21T10:33:54.127Z,1033.71
2018-12-21T10:34:54.699Z,1033.77
2018-12-21T10:35:55.267Z,1033.74
2018-12-21T10:36:55.837Z,1033.72
2018-12-21T10:37:56.456Z,1033.72
2018-12-21T10:38:57.027Z,1033.75
2018-12-21T10:39:57.597Z,1033.79
2018-12-21T10:40:58.165Z,1033.80
2018-12-21T10:41:58.788Z,1033.83
2018-12-21T10:42:59.355Z,1033.80
2018-12-21T10:43:59.976Z,1033.77
2018-12-21T10:45:00.595Z,1033.77
2018-12-21T10:46:01.165Z,1033.78
2018-12-21T10:47:01.733Z,1033.70
2018-12-21T10:48:02.300Z,1033.75
2018-12-21T10:49:02.870Z,1033.82
2018-12-21T10:50:03.483Z,1033.78
2018-12-21T10:51:04.049Z,1033.71
2018-12-21T10:52:04.619Z,1033.81
2018-12-21T10:53:05.186Z,1033.83
2018-12-21T10:54:05.754Z,1033.82
2018-12-21T10:55:06.324Z,1033.86
2018-12-21T10:56:06.892Z,1033.86
2018-12-21T10:57:07.459Z,1033.86
2018-12-21T10:58:08.030Z,1033.86
2018-12-21T10:59:08.646Z,1033.86
2018-12-21T11:00:09.215Z,1033.94
2018-12-21T11:01:09.833Z,1033.98
2018-12-21T11:02:15.456Z,1033.92
2018-12-21T11:03:16.066Z,1033.95
2018-12-21T11:04:16.635Z,1033.94
2018-12-21T11:05:17.255Z,1033.92
2018-12-21T11:06:17.825Z,1033.90
2018-12-21T11:07:18.393Z,1033.94
2018-12-21T11:08:18.962Z,1033.88
2018-12-21T11:09:19.534Z,1033.88
2018-12-21T11:10:20.101Z,1033.82
2018-12-21T11:11:20.673Z,1033.82
2018-12-21T11:12:21.242Z,1033.83
2018-12-21T11:13:21.862Z,1033.89
2018-12-21T11:14:22.482Z,1033.87
2018-12-21T11:15:23.053Z,1033.90
2018-12-21T11:16:23.623Z,1033.92
2018-12-21T11:17:24.193Z,1033.83
2018-12-21T11:18:24.815Z,1033.84
2018-12-21T11:19:25.432Z,1033.80
2018-12-21T11:20:26.003Z,1033.93
2018-12-21T11:21:26.723Z,1033.89
2018-12-21T11:22:27.295Z,1033.92
2018-12-21T11:23:27.900Z,1033.83
2018-12-21T11:24:35.420Z,1033.87
2018-12-21T11:25:29.129Z,1033.87
2018-12-21T11:26:29.695Z,1033.80
2018-12-21T11:27:30.265Z,1033.81
2018-12-21T11:28:30.834Z,1033.80
2018-12-21T11:29:31.401Z,1033.80
2018-12-21T11:30:31.970Z,1033.85
2018-12-21T11:31:32.538Z,1033.85
2018-12-21T11:32:33.105Z,1033.83
2018-12-21T11:33:33.687Z,1033.94
2018-12-21T11:34:34.242Z,1033.88
2018-12-21T11:35:35.011Z,1033.91
2018-12-21T11:36:35.579Z,1033.92
2018-12-21T11:37:36.296Z,1033.91
2018-12-21T11:38:36.867Z,1033.83
2018-12-21T11:39:37.442Z,1033.83
2018-12-21T11:40:38.005Z,1033.85
2018-12-21T11:41:38.571Z,1033.80
2018-12-21T11:42:39.190Z,1033.84
2018-12-21T11:43:39.759Z,1033.75
2018-12-21T11:44:40.326Z,1033.80
2018-12-21T11:45:40.895Z,1033.76
2018-12-21T11:46:41.466Z,1033.73
2018-12-21T11:47:42.033Z,1033.69
2018-12-21T11:48:42.604Z,1033.72
2018-12-21T11:49:43.213Z,1033.69
2018-12-21T11:50:43.781Z,1033.67
2018-12-21T11:51:44.352Z,1033.66
2018-12-21T11:52:44.971Z,1033.64
2018-12-21T11:53:45.543Z,1033.64
2018-12-21T11:54:46.162Z,1033.66
2018-12-21T11:55:46.733Z,1033.71
2018-12-21T11:56:47.344Z,1033.53
2018-12-21T11:57:47.912Z,1033.66
2018-12-21T11:58:48.530Z,1033.55
2018-12-21T11:59:49.147Z,1033.53
2018-12-21T12:00:49.715Z,1033.64
2018-12-21T12:01:50.286Z,1033.57
2018-12-21T12:02:50.856Z,1033.50
2018-12-21T12:03:51.424Z,1033.44
2018-12-21T12:04:51.995Z,1033.54
2018-12-21T12:05:52.564Z,1033.40
2018-12-21T12:06:53.134Z,1033.45
2018-12-21T12:07:53.701Z,1033.39
2018-12-21T12:08:54.268Z,1033.37
2018-12-21T12:09:54.838Z,1033.33
2018-12-21T12:10:55.457Z,1033.32
2018-12-21T12:11:56.025Z,1033.25
2018-12-21T12:12:56.595Z,1033.31
2018-12-21T12:13:57.211Z,1033.31
2018-12-21T12:14:57.780Z,1033.28
2018-12-21T12:15:58.401Z,1033.29
2018-12-21T12:16:58.968Z,1033.30
2018-12-21T12:17:59.588Z,1033.30